sensor_id;sensor_type;location;lat;lon;timestamp;P1;durP1;ratioP1;P2;durP2;ratioP2
34982;SDS011;21187;50.976;13.720;2023-06-19T00:02:09;7.75;;;4.97;;
34982;SDS011;21187;50.976;13.720;2023-06-19T00:07:11;8.25;;;5.30;;
34982;SDS011;21187;50.976;13.720;2023-06-19T00:12:13;7.68;;;4.93;;
34982;SDS011;21187;50.976;13.720;2023-06-19T00:17:15;16.88;;;5.57;;
34982;SDS011;21187;50.976;13.720;2023-06-19T00:22:18;12.13;;;5.80;;
34982;SDS011;21187;50.976;13.720;2023-06-19T00:27:20;12.20;;;6.07;;
34982;SDS011;21187;50.976;13.720;2023-06-19T00:32:22;10.07;;;6.20;;
34982;SDS011;21187;50.976;13.720;2023-06-19T00:37:24;9.45;;;5.53;;
34982;SDS011;21187;50.976;13.720;2023-06-19T00:42:27;9.95;;;6.40;;
34982;SDS011;21187;50.976;13.720;2023-06-19T00:47:29;10.70;;;5.93;;
34982;SDS011;21187;50.976;13.720;2023-06-19T00:52:31;9.52;;;6.38;;
34982;SDS011;21187;50.976;13.720;2023-06-19T00:57:35;10.50;;;6.53;;
34982;SDS011;21187;50.976;13.720;2023-06-19T01:02:38;11.18;;;6.70;;
34982;SDS011;21187;50.976;13.720;2023-06-19T01:18:25;13.48;;;7.45;;
34982;SDS011;21187;50.976;13.720;2023-06-19T01:23:28;10.27;;;6.32;;
34982;SDS011;21187;50.976;13.720;2023-06-19T01:28:30;10.02;;;6.45;;
34982;SDS011;21187;50.976;13.720;2023-06-19T01:33:32;17.67;;;7.07;;
34982;SDS011;21187;50.976;13.720;2023-06-19T01:38:35;11.85;;;6.68;;
34982;SDS011;21187;50.976;13.720;2023-06-19T01:43:39;13.75;;;6.03;;
34982;SDS011;21187;50.976;13.720;2023-06-19T01:48:41;10.68;;;7.03;;
34982;SDS011;21187;50.976;13.720;2023-06-19T01:53:44;11.63;;;7.15;;
34982;SDS011;21187;50.976;13.720;2023-06-19T01:58:46;11.45;;;7.25;;
34982;SDS011;21187;50.976;13.720;2023-06-19T02:03:48;11.95;;;6.78;;
34982;SDS011;21187;50.976;13.720;2023-06-19T02:08:50;12.18;;;7.40;;
34982;SDS011;21187;50.976;13.720;2023-06-19T02:13:52;11.10;;;6.68;;
34982;SDS011;21187;50.976;13.720;2023-06-19T02:18:54;17.95;;;6.95;;
34982;SDS011;21187;50.976;13.720;2023-06-19T02:23:57;17.20;;;7.50;;
34982;SDS011;21187;50.976;13.720;2023-06-19T02:28:59;10.27;;;6.72;;
34982;SDS011;21187;50.976;13.720;2023-06-19T02:34:02;13.15;;;7.07;;
34982;SDS011;21187;50.976;13.720;2023-06-19T02:39:04;13.90;;;7.28;;
34982;SDS011;21187;50.976;13.720;2023-06-19T02:44:07;12.45;;;7.13;;
34982;SDS011;21187;50.976;13.720;2023-06-19T02:49:09;14.52;;;7.60;;
34982;SDS011;21187;50.976;13.720;2023-06-19T02:54:11;14.02;;;8.02;;
34982;SDS011;21187;50.976;13.720;2023-06-19T02:59:13;17.40;;;7.20;;
34982;SDS011;21187;50.976;13.720;2023-06-19T03:04:15;11.88;;;7.47;;
34982;SDS011;21187;50.976;13.720;2023-06-19T03:09:17;13.43;;;7.47;;
34982;SDS011;21187;50.976;13.720;2023-06-19T03:14:19;13.77;;;7.13;;
34982;SDS011;21187;50.976;13.720;2023-06-19T03:19:21;11.00;;;7.53;;
34982;SDS011;21187;50.976;13.720;2023-06-19T03:24:24;10.27;;;6.78;;
34982;SDS011;21187;50.976;13.720;2023-06-19T03:29:34;13.57;;;8.05;;
34982;SDS011;21187;50.976;13.720;2023-06-19T03:34:39;10.45;;;6.88;;
34982;SDS011;21187;50.976;13.720;2023-06-19T03:39:43;12.68;;;7.57;;
34982;SDS011;21187;50.976;13.720;2023-06-19T03:44:46;12.23;;;7.53;;
34982;SDS011;21187;50.976;13.720;2023-06-19T03:49:48;10.98;;;7.05;;
34982;SDS011;21187;50.976;13.720;2023-06-19T03:54:50;12.65;;;7.63;;
34982;SDS011;21187;50.976;13.720;2023-06-19T03:59:53;12.10;;;7.63;;
34982;SDS011;21187;50.976;13.720;2023-06-19T04:04:56;15.13;;;8.05;;
34982;SDS011;21187;50.976;13.720;2023-06-19T04:09:58;15.40;;;8.27;;
34982;SDS011;21187;50.976;13.720;2023-06-19T04:15:00;11.32;;;7.40;;
34982;SDS011;21187;50.976;13.720;2023-06-19T04:20:03;15.65;;;8.30;;
34982;SDS011;21187;50.976;13.720;2023-06-19T04:25:13;15.18;;;7.63;;
34982;SDS011;21187;50.976;13.720;2023-06-19T04:30:15;13.50;;;7.03;;
34982;SDS011;21187;50.976;13.720;2023-06-19T04:35:17;12.18;;;6.95;;
34982;SDS011;21187;50.976;13.720;2023-06-19T04:40:20;11.73;;;7.20;;
34982;SDS011;21187;50.976;13.720;2023-06-19T04:45:22;11.50;;;6.88;;
34982;SDS011;21187;50.976;13.720;2023-06-19T04:50:24;11.75;;;7.60;;
34982;SDS011;21187;50.976;13.720;2023-06-19T04:55:26;11.32;;;7.50;;
34982;SDS011;21187;50.976;13.720;2023-06-19T05:00:28;12.38;;;7.38;;
34982;SDS011;21187;50.976;13.720;2023-06-19T05:05:30;12.68;;;7.38;;
34982;SDS011;21187;50.976;13.720;2023-06-19T05:10:32;15.30;;;8.02;;
34982;SDS011;21187;50.976;13.720;2023-06-19T05:15:34;10.95;;;6.85;;
34982;SDS011;21187;50.976;13.720;2023-06-19T05:20:36;14.02;;;7.40;;
34982;SDS011;21187;50.976;13.720;2023-06-19T05:25:38;15.25;;;7.28;;
34982;SDS011;21187;50.976;13.720;2023-06-19T05:30:40;14.10;;;7.88;;
34982;SDS011;21187;50.976;13.720;2023-06-19T05:35:42;12.63;;;7.15;;
34982;SDS011;21187;50.976;13.720;2023-06-19T05:40:44;11.85;;;7.03;;
34982;SDS011;21187;50.976;13.720;2023-06-19T05:45:46;13.25;;;6.88;;
34982;SDS011;21187;50.976;13.720;2023-06-19T05:50:48;13.43;;;7.15;;
34982;SDS011;21187;50.976;13.720;2023-06-19T05:55:50;13.43;;;7.13;;
34982;SDS011;21187;50.976;13.720;2023-06-19T06:00:52;11.32;;;7.28;;
34982;SDS011;21187;50.976;13.720;2023-06-19T06:05:59;15.75;;;8.02;;
34982;SDS011;21187;50.976;13.720;2023-06-19T06:11:04;11.63;;;7.32;;
34982;SDS011;21187;50.976;13.720;2023-06-19T06:16:06;12.48;;;7.38;;
34982;SDS011;21187;50.976;13.720;2023-06-19T06:21:09;17.83;;;7.22;;
34982;SDS011;21187;50.976;13.720;2023-06-19T06:26:10;12.63;;;7.53;;
34982;SDS011;21187;50.976;13.720;2023-06-19T06:31:12;11.07;;;7.18;;
34982;SDS011;21187;50.976;13.720;2023-06-19T06:36:14;12.55;;;7.97;;
34982;SDS011;21187;50.976;13.720;2023-06-19T06:41:35;11.23;;;7.47;;
34982;SDS011;21187;50.976;13.720;2023-06-19T06:46:39;10.27;;;7.28;;
34982;SDS011;21187;50.976;13.720;2023-06-19T06:51:40;14.27;;;7.95;;
34982;SDS011;21187;50.976;13.720;2023-06-19T06:56:42;14.18;;;7.80;;
34982;SDS011;21187;50.976;13.720;2023-06-19T07:01:47;13.25;;;7.65;;
34982;SDS011;21187;50.976;13.720;2023-06-19T07:06:49;14.43;;;8.77;;
34982;SDS011;21187;50.976;13.720;2023-06-19T07:11:51;13.57;;;7.63;;
34982;SDS011;21187;50.976;13.720;2023-06-19T07:16:54;12.90;;;7.50;;
34982;SDS011;21187;50.976;13.720;2023-06-19T07:21:56;14.82;;;6.68;;
34982;SDS011;21187;50.976;13.720;2023-06-19T07:26:58;12.00;;;7.63;;
34982;SDS011;21187;50.976;13.720;2023-06-19T07:32:00;13.60;;;7.13;;
34982;SDS011;21187;50.976;13.720;2023-06-19T07:37:06;11.23;;;7.43;;
34982;SDS011;21187;50.976;13.720;2023-06-19T07:42:08;13.32;;;7.22;;
34982;SDS011;21187;50.976;13.720;2023-06-19T07:47:12;12.00;;;7.55;;
34982;SDS011;21187;50.976;13.720;2023-06-19T07:52:15;13.82;;;7.90;;
34982;SDS011;21187;50.976;13.720;2023-06-19T07:57:17;12.95;;;7.63;;
34982;SDS011;21187;50.976;13.720;2023-06-19T08:02:19;11.48;;;7.15;;
34982;SDS011;21187;50.976;13.720;2023-06-19T08:07:21;11.60;;;6.32;;
34982;SDS011;21187;50.976;13.720;2023-06-19T08:12:22;9.50;;;6.72;;
34982;SDS011;21187;50.976;13.720;2023-06-19T08:17:24;10.20;;;6.22;;
34982;SDS011;21187;50.976;13.720;2023-06-19T08:22:26;11.98;;;7.15;;
34982;SDS011;21187;50.976;13.720;2023-06-19T08:27:28;13.85;;;7.45;;
34982;SDS011;21187;50.976;13.720;2023-06-19T08:32:30;13.80;;;7.38;;
34982;SDS011;21187;50.976;13.720;2023-06-19T08:37:32;13.20;;;8.07;;
34982;SDS011;21187;50.976;13.720;2023-06-19T08:42:34;14.15;;;7.50;;
34982;SDS011;21187;50.976;13.720;2023-06-19T08:47:37;13.05;;;7.90;;
34982;SDS011;21187;50.976;13.720;2023-06-19T08:52:39;13.13;;;7.70;;
34982;SDS011;21187;50.976;13.720;2023-06-19T08:57:41;15.85;;;8.00;;
34982;SDS011;21187;50.976;13.720;2023-06-19T09:02:44;19.25;;;7.82;;
34982;SDS011;21187;50.976;13.720;2023-06-19T09:08:05;12.15;;;7.95;;
34982;SDS011;21187;50.976;13.720;2023-06-19T09:13:10;18.10;;;7.43;;
34982;SDS011;21187;50.976;13.720;2023-06-19T09:18:13;12.70;;;6.93;;
34982;SDS011;21187;50.976;13.720;2023-06-19T09:23:14;13.10;;;7.80;;
34982;SDS011;21187;50.976;13.720;2023-06-19T09:28:25;15.02;;;7.75;;
34982;SDS011;21187;50.976;13.720;2023-06-19T09:33:30;12.57;;;7.90;;
34982;SDS011;21187;50.976;13.720;2023-06-19T09:38:35;13.45;;;7.30;;
34982;SDS011;21187;50.976;13.720;2023-06-19T09:43:46;11.63;;;7.70;;
34982;SDS011;21187;50.976;13.720;2023-06-19T09:48:52;13.40;;;7.70;;
34982;SDS011;21187;50.976;13.720;2023-06-19T09:54:00;14.85;;;7.78;;
34982;SDS011;21187;50.976;13.720;2023-06-19T09:59:05;12.40;;;8.45;;
34982;SDS011;21187;50.976;13.720;2023-06-19T10:04:11;13.20;;;7.78;;
34982;SDS011;21187;50.976;13.720;2023-06-19T10:09:14;18.40;;;8.52;;
34982;SDS011;21187;50.976;13.720;2023-06-19T10:14:20;14.55;;;8.82;;
34982;SDS011;21187;50.976;13.720;2023-06-19T10:19:23;11.52;;;7.85;;
34982;SDS011;21187;50.976;13.720;2023-06-19T10:24:25;14.95;;;8.20;;
34982;SDS011;21187;50.976;13.720;2023-06-19T10:29:51;13.68;;;8.30;;
34982;SDS011;21187;50.976;13.720;2023-06-19T10:35:10;13.30;;;8.05;;
34982;SDS011;21187;50.976;13.720;2023-06-19T10:40:14;12.45;;;8.27;;
34982;SDS011;21187;50.976;13.720;2023-06-19T10:45:16;11.57;;;8.05;;
34982;SDS011;21187;50.976;13.720;2023-06-19T10:50:19;17.13;;;7.70;;
34982;SDS011;21187;50.976;13.720;2023-06-19T10:55:21;10.95;;;7.30;;
34982;SDS011;21187;50.976;13.720;2023-06-19T11:00:24;15.18;;;7.63;;
34982;SDS011;21187;50.976;13.720;2023-06-19T11:05:27;10.98;;;6.65;;
34982;SDS011;21187;50.976;13.720;2023-06-19T11:10:30;15.10;;;7.13;;
34982;SDS011;21187;50.976;13.720;2023-06-19T11:15:32;13.20;;;7.10;;
34982;SDS011;21187;50.976;13.720;2023-06-19T11:20:51;8.30;;;5.57;;
34982;SDS011;21187;50.976;13.720;2023-06-19T11:25:54;10.02;;;6.07;;
34982;SDS011;21187;50.976;13.720;2023-06-19T11:31:04;9.25;;;6.00;;
34982;SDS011;21187;50.976;13.720;2023-06-19T11:36:06;9.00;;;5.93;;
34982;SDS011;21187;50.976;13.720;2023-06-19T11:41:10;11.85;;;5.97;;
34982;SDS011;21187;50.976;13.720;2023-06-19T11:46:13;10.05;;;6.68;;
34982;SDS011;21187;50.976;13.720;2023-06-19T11:51:17;11.38;;;6.05;;
34982;SDS011;21187;50.976;13.720;2023-06-19T11:56:19;8.73;;;5.38;;
34982;SDS011;21187;50.976;13.720;2023-06-19T12:01:21;9.38;;;5.47;;
34982;SDS011;21187;50.976;13.720;2023-06-19T12:06:23;14.02;;;6.20;;
34982;SDS011;21187;50.976;13.720;2023-06-19T12:11:25;12.13;;;6.57;;
34982;SDS011;21187;50.976;13.720;2023-06-19T12:16:27;9.43;;;5.68;;
34982;SDS011;21187;50.976;13.720;2023-06-19T12:21:30;8.10;;;5.28;;
34982;SDS011;21187;50.976;13.720;2023-06-19T12:26:39;9.98;;;5.55;;
34982;SDS011;21187;50.976;13.720;2023-06-19T12:31:43;10.55;;;5.97;;
34982;SDS011;21187;50.976;13.720;2023-06-19T12:36:45;7.57;;;5.15;;
34982;SDS011;21187;50.976;13.720;2023-06-19T12:41:47;12.07;;;5.45;;
34982;SDS011;21187;50.976;13.720;2023-06-19T12:46:49;11.27;;;5.30;;
34982;SDS011;21187;50.976;13.720;2023-06-19T12:51:51;6.88;;;4.90;;
34982;SDS011;21187;50.976;13.720;2023-06-19T12:56:53;8.80;;;5.32;;
34982;SDS011;21187;50.976;13.720;2023-06-19T13:01:55;9.75;;;5.35;;
34982;SDS011;21187;50.976;13.720;2023-06-19T13:06:58;15.10;;;6.05;;
34982;SDS011;21187;50.976;13.720;2023-06-19T13:12:00;8.50;;;5.25;;
34982;SDS011;21187;50.976;13.720;2023-06-19T13:17:01;9.63;;;6.57;;
34982;SDS011;21187;50.976;13.720;2023-06-19T13:22:03;17.15;;;6.10;;
34982;SDS011;21187;50.976;13.720;2023-06-19T13:27:07;10.05;;;6.30;;
34982;SDS011;21187;50.976;13.720;2023-06-19T13:32:09;13.82;;;6.38;;
34982;SDS011;21187;50.976;13.720;2023-06-19T13:37:10;11.30;;;7.00;;
34982;SDS011;21187;50.976;13.720;2023-06-19T13:42:12;12.45;;;7.10;;
34982;SDS011;21187;50.976;13.720;2023-06-19T13:47:14;13.75;;;6.68;;
34982;SDS011;21187;50.976;13.720;2023-06-19T13:52:16;12.43;;;6.50;;
34982;SDS011;21187;50.976;13.720;2023-06-19T13:57:18;12.95;;;7.25;;
34982;SDS011;21187;50.976;13.720;2023-06-19T14:02:20;13.18;;;6.90;;
34982;SDS011;21187;50.976;13.720;2023-06-19T14:07:22;10.88;;;6.70;;
34982;SDS011;21187;50.976;13.720;2023-06-19T14:12:24;15.90;;;6.50;;
34982;SDS011;21187;50.976;13.720;2023-06-19T14:17:26;14.45;;;8.02;;
34982;SDS011;21187;50.976;13.720;2023-06-19T14:22:28;11.68;;;7.80;;
34982;SDS011;21187;50.976;13.720;2023-06-19T14:27:30;14.90;;;8.40;;
34982;SDS011;21187;50.976;13.720;2023-06-19T14:32:32;15.38;;;8.80;;
34982;SDS011;21187;50.976;13.720;2023-06-19T14:37:34;17.98;;;7.85;;
34982;SDS011;21187;50.976;13.720;2023-06-19T14:42:36;14.63;;;8.05;;
34982;SDS011;21187;50.976;13.720;2023-06-19T14:47:38;19.77;;;8.80;;
34982;SDS011;21187;50.976;13.720;2023-06-19T14:52:40;11.60;;;7.93;;
34982;SDS011;21187;50.976;13.720;2023-06-19T14:57:42;13.13;;;7.93;;
34982;SDS011;21187;50.976;13.720;2023-06-19T15:02:44;13.88;;;7.72;;
34982;SDS011;21187;50.976;13.720;2023-06-19T15:07:46;13.02;;;8.50;;
34982;SDS011;21187;50.976;13.720;2023-06-19T15:12:48;10.45;;;7.57;;
34982;SDS011;21187;50.976;13.720;2023-06-19T15:17:50;16.20;;;7.70;;
34982;SDS011;21187;50.976;13.720;2023-06-19T15:22:52;12.27;;;7.28;;
34982;SDS011;21187;50.976;13.720;2023-06-19T15:27:54;17.45;;;7.78;;
34982;SDS011;21187;50.976;13.720;2023-06-19T15:32:56;9.73;;;6.00;;
34982;SDS011;21187;50.976;13.720;2023-06-19T15:37:58;9.40;;;6.13;;
34982;SDS011;21187;50.976;13.720;2023-06-19T15:43:00;10.07;;;7.05;;
34982;SDS011;21187;50.976;13.720;2023-06-19T15:48:02;9.60;;;6.70;;
34982;SDS011;21187;50.976;13.720;2023-06-19T15:53:05;9.68;;;6.60;;
34982;SDS011;21187;50.976;13.720;2023-06-19T15:58:09;17.05;;;6.65;;
34982;SDS011;21187;50.976;13.720;2023-06-19T16:03:12;8.77;;;6.18;;
34982;SDS011;21187;50.976;13.720;2023-06-19T16:08:14;12.88;;;5.60;;
34982;SDS011;21187;50.976;13.720;2023-06-19T16:13:16;12.15;;;6.00;;
34982;SDS011;21187;50.976;13.720;2023-06-19T16:18:18;15.25;;;6.10;;
34982;SDS011;21187;50.976;13.720;2023-06-19T16:23:20;10.68;;;6.03;;
34982;SDS011;21187;50.976;13.720;2023-06-19T16:28:22;10.00;;;6.28;;
34982;SDS011;21187;50.976;13.720;2023-06-19T16:33:24;10.07;;;6.25;;
34982;SDS011;21187;50.976;13.720;2023-06-19T16:38:26;9.70;;;6.13;;
34982;SDS011;21187;50.976;13.720;2023-06-19T16:43:28;10.77;;;6.50;;
34982;SDS011;21187;50.976;13.720;2023-06-19T16:48:30;11.18;;;6.50;;
34982;SDS011;21187;50.976;13.720;2023-06-19T16:53:32;9.90;;;6.20;;
34982;SDS011;21187;50.976;13.720;2023-06-19T16:58:34;9.63;;;5.65;;
34982;SDS011;21187;50.976;13.720;2023-06-19T17:03:36;9.65;;;6.25;;
34982;SDS011;21187;50.976;13.720;2023-06-19T17:08:38;10.38;;;6.15;;
34982;SDS011;21187;50.976;13.720;2023-06-19T17:13:40;13.13;;;6.90;;
34982;SDS011;21187;50.976;13.720;2023-06-19T17:18:42;10.00;;;6.72;;
34982;SDS011;21187;50.976;13.720;2023-06-19T17:23:44;11.00;;;6.35;;
34982;SDS011;21187;50.976;13.720;2023-06-19T17:28:47;11.88;;;6.55;;
34982;SDS011;21187;50.976;13.720;2023-06-19T17:33:49;11.63;;;6.47;;
34982;SDS011;21187;50.976;13.720;2023-06-19T17:38:50;8.60;;;6.15;;
34982;SDS011;21187;50.976;13.720;2023-06-19T17:43:52;11.95;;;6.63;;
34982;SDS011;21187;50.976;13.720;2023-06-19T17:48:54;11.10;;;7.28;;
34982;SDS011;21187;50.976;13.720;2023-06-19T17:53:56;10.55;;;6.28;;
34982;SDS011;21187;50.976;13.720;2023-06-19T17:58:59;11.38;;;6.50;;
34982;SDS011;21187;50.976;13.720;2023-06-19T18:04:01;12.73;;;7.57;;
34982;SDS011;21187;50.976;13.720;2023-06-19T18:09:04;14.10;;;8.27;;
34982;SDS011;21187;50.976;13.720;2023-06-19T18:14:09;9.82;;;6.82;;
34982;SDS011;21187;50.976;13.720;2023-06-19T18:19:10;11.00;;;6.88;;
34982;SDS011;21187;50.976;13.720;2023-06-19T18:24:12;13.70;;;6.72;;
34982;SDS011;21187;50.976;13.720;2023-06-19T18:29:14;11.52;;;7.65;;
34982;SDS011;21187;50.976;13.720;2023-06-19T18:34:18;10.80;;;7.30;;
34982;SDS011;21187;50.976;13.720;2023-06-19T18:39:20;10.93;;;7.30;;
34982;SDS011;21187;50.976;13.720;2023-06-19T18:44:24;12.30;;;7.82;;
34982;SDS011;21187;50.976;13.720;2023-06-19T18:49:26;18.20;;;8.00;;
34982;SDS011;21187;50.976;13.720;2023-06-19T18:54:32;14.52;;;7.88;;
34982;SDS011;21187;50.976;13.720;2023-06-19T18:59:34;12.70;;;7.57;;
34982;SDS011;21187;50.976;13.720;2023-06-19T19:04:36;10.95;;;7.90;;
34982;SDS011;21187;50.976;13.720;2023-06-19T19:09:41;10.50;;;7.13;;
34982;SDS011;21187;50.976;13.720;2023-06-19T19:14:44;14.10;;;7.65;;
34982;SDS011;21187;50.976;13.720;2023-06-19T19:19:46;12.77;;;7.70;;
34982;SDS011;21187;50.976;13.720;2023-06-19T19:24:48;13.00;;;7.43;;
34982;SDS011;21187;50.976;13.720;2023-06-19T19:29:51;10.90;;;7.30;;
34982;SDS011;21187;50.976;13.720;2023-06-19T19:34:54;13.20;;;7.97;;
34982;SDS011;21187;50.976;13.720;2023-06-19T19:39:58;12.02;;;7.57;;
34982;SDS011;21187;50.976;13.720;2023-06-19T19:45:00;15.02;;;7.75;;
34982;SDS011;21187;50.976;13.720;2023-06-19T19:50:06;15.88;;;7.57;;
34982;SDS011;21187;50.976;13.720;2023-06-19T19:55:09;13.60;;;8.02;;
34982;SDS011;21187;50.976;13.720;2023-06-19T20:00:12;14.00;;;7.68;;
34982;SDS011;21187;50.976;13.720;2023-06-19T20:05:15;10.82;;;7.30;;
34982;SDS011;21187;50.976;13.720;2023-06-19T20:10:17;11.35;;;7.22;;
34982;SDS011;21187;50.976;13.720;2023-06-19T20:15:19;14.15;;;7.72;;
34982;SDS011;21187;50.976;13.720;2023-06-19T20:20:21;12.73;;;7.88;;
34982;SDS011;21187;50.976;13.720;2023-06-19T20:25:24;12.45;;;8.20;;
34982;SDS011;21187;50.976;13.720;2023-06-19T20:30:26;15.30;;;8.65;;
34982;SDS011;21187;50.976;13.720;2023-06-19T20:35:28;15.05;;;8.20;;
34982;SDS011;21187;50.976;13.720;2023-06-19T20:40:30;17.50;;;8.15;;
34982;SDS011;21187;50.976;13.720;2023-06-19T20:45:32;14.82;;;8.27;;
34982;SDS011;21187;50.976;13.720;2023-06-19T20:50:34;17.55;;;8.45;;
34982;SDS011;21187;50.976;13.720;2023-06-19T20:55:36;14.40;;;8.68;;
34982;SDS011;21187;50.976;13.720;2023-06-19T21:00:38;11.82;;;8.10;;
34982;SDS011;21187;50.976;13.720;2023-06-19T21:05:40;15.27;;;7.82;;
34982;SDS011;21187;50.976;13.720;2023-06-19T21:10:42;20.42;;;8.60;;
34982;SDS011;21187;50.976;13.720;2023-06-19T21:15:44;13.43;;;9.18;;
34982;SDS011;21187;50.976;13.720;2023-06-19T21:20:46;13.88;;;7.88;;
34982;SDS011;21187;50.976;13.720;2023-06-19T21:25:49;14.63;;;8.05;;
34982;SDS011;21187;50.976;13.720;2023-06-19T21:30:51;13.90;;;8.93;;
34982;SDS011;21187;50.976;13.720;2023-06-19T21:35:53;15.15;;;9.15;;
34982;SDS011;21187;50.976;13.720;2023-06-19T21:40:55;14.35;;;9.23;;
34982;SDS011;21187;50.976;13.720;2023-06-19T21:45:57;15.93;;;9.23;;
34982;SDS011;21187;50.976;13.720;2023-06-19T21:51:00;15.93;;;9.23;;
34982;SDS011;21187;50.976;13.720;2023-06-19T21:56:01;14.80;;;9.00;;
34982;SDS011;21187;50.976;13.720;2023-06-19T22:01:04;19.75;;;9.43;;
34982;SDS011;21187;50.976;13.720;2023-06-19T22:06:06;16.15;;;9.55;;
34982;SDS011;21187;50.976;13.720;2023-06-19T22:11:08;16.85;;;10.88;;
34982;SDS011;21187;50.976;13.720;2023-06-19T22:16:10;14.35;;;9.07;;
34982;SDS011;21187;50.976;13.720;2023-06-19T22:21:12;15.98;;;9.75;;
34982;SDS011;21187;50.976;13.720;2023-06-19T22:26:14;13.15;;;9.20;;
34982;SDS011;21187;50.976;13.720;2023-06-19T22:31:16;14.02;;;9.15;;
34982;SDS011;21187;50.976;13.720;2023-06-19T22:36:18;15.55;;;9.20;;
34982;SDS011;21187;50.976;13.720;2023-06-19T22:41:20;14.40;;;9.40;;
34982;SDS011;21187;50.976;13.720;2023-06-19T22:46:22;13.65;;;8.85;;
34982;SDS011;21187;50.976;13.720;2023-06-19T22:51:24;14.65;;;9.52;;
34982;SDS011;21187;50.976;13.720;2023-06-19T22:56:26;14.73;;;9.50;;
34982;SDS011;21187;50.976;13.720;2023-06-19T23:01:27;15.95;;;9.57;;
34982;SDS011;21187;50.976;13.720;2023-06-19T23:06:32;17.27;;;9.93;;
34982;SDS011;21187;50.976;13.720;2023-06-19T23:11:44;16.10;;;8.95;;
34982;SDS011;21187;50.976;13.720;2023-06-19T23:16:49;18.15;;;9.73;;
34982;SDS011;21187;50.976;13.720;2023-06-19T23:21:51;15.35;;;9.32;;
34982;SDS011;21187;50.976;13.720;2023-06-19T23:26:53;16.27;;;9.23;;
34982;SDS011;21187;50.976;13.720;2023-06-19T23:31:56;15.02;;;8.85;;
34982;SDS011;21187;50.976;13.720;2023-06-19T23:37:00;15.38;;;9.45;;
34982;SDS011;21187;50.976;13.720;2023-06-19T23:42:02;18.60;;;9.27;;
34982;SDS011;21187;50.976;13.720;2023-06-19T23:47:04;19.10;;;10.02;;
34982;SDS011;21187;50.976;13.720;2023-06-19T23:52:07;16.52;;;9.70;;
34982;SDS011;21187;50.976;13.720;2023-06-19T23:57:09;15.60;;;9.50;;
